Dream Diva — 3EKW6 — position and weather

sailwx.info

Track history (hours):
 
Tides and Currents Weather Stations Pressure Air Temp Water Temp Dewpoint Dewpoint Depression Visibility Wind Speed Wind Dir Waves Ship Positions

Dream Diva

Last reported at 2017-Dec-14 17:55 UTC. Time now 2017-Dec-15 12:17 UTC.
Position S 36°24' E 175°16'.

Length 186 m; draft 7.6 m.

Type: Cargo ship. MMSI: 372856000.

Date/timePositionNaut miles runAvg speedWind from/ knotsBaromVisibWave heightAir tempDewpointWater temp
2017-Dec-14 17:55S 36°24' E 175°16'410.3
2017-Dec-14 17:30S 36°27' E 175°12'510.4
2017-Dec-14 17:00S 36°31' E 175°07'510.3
2017-Dec-14 16:29S 36°35' E 175°03'5 9.8
2017-Dec-14 16:00S 36°37' E 174°58'1010.2
2017-Dec-14 15:00S 36°45' E 174°50'5 9.6
2017-Dec-14 14:30S 36°50' E 174°50'3 5.2
2017-Dec-14 14:00S 36°50' E 174°46'0 0.0
2017-Dec-14 13:25S 36°50' E 174°46'0 0.0
2017-Dec-14 12:55S 36°50' E 174°46'0 0.0
2017-Dec-14 12:19S 36°50' E 174°46'0 0.0
2017-Dec-14 11:55S 36°50' E 174°46'0 0.0
2017-Dec-14 11:19S 36°50' E 174°46'0 0.0
2017-Dec-14 10:55S 36°50' E 174°46'0 0.0
2017-Dec-14 10:25S 36°50' E 174°46'0 0.0
2017-Dec-14 09:55S 36°50' E 174°46'0 0.0
2017-Dec-14 09:25S 36°50' E 174°46'0 0.0
2017-Dec-14 08:55S 36°50' E 174°46'0 0.0
2017-Dec-14 08:25S 36°50' E 174°46'0 0.0
2017-Dec-14 07:55S 36°50' E 174°46'0 0.0
2017-Dec-14 07:25S 36°50' E 174°46'0 0.0
2017-Dec-14 06:55S 36°50' E 174°46'0 0.0
2017-Dec-14 06:25S 36°50' E 174°46'0 0.0
2017-Dec-14 05:55S 36°50' E 174°46'0 0.0
2017-Dec-14 05:25S 36°50' E 174°46'0 0.0
2017-Dec-14 04:55S 36°50' E 174°46'0 0.0
2017-Dec-14 04:25S 36°50' E 174°46'0 0.0
2017-Dec-14 03:55S 36°50' E 174°46'0 0.0
2017-Dec-14 03:25S 36°50' E 174°46'0 0.0
2017-Dec-14 02:55S 36°50' E 174°46'0 0.0
2017-Dec-14 02:25S 36°50' E 174°46'0 0.0
2017-Dec-14 01:55S 36°50' E 174°46'0 0.0
2017-Dec-14 01:25S 36°50' E 174°46'0 0.0
2017-Dec-14 00:55S 36°50' E 174°46'0 0.0
2017-Dec-14 00:25S 36°50' E 174°46'0 0.0
2017-Dec-13 23:55S 36°50' E 174°46'0 0.0
2017-Dec-13 23:25S 36°50' E 174°46'0 0.3
2017-Dec-13 23:00S 36°50' E 174°46'2 4.8
2017-Dec-13 22:30S 36°50' E 174°49'510.5
2017-Dec-13 22:00S 36°45' E 174°50'4 8.9
2017-Dec-13 21:30S 36°41' E 174°53'4 8.7
2017-Dec-13 21:00S 36°38' E 174°57'3 6.7
2017-Dec-13 20:30S 36°34' E 174°58'  
Track history (hours):
 
Tides and Currents Weather Stations Pressure Air Temp Water Temp Dewpoint Dewpoint Depression Visibility Wind Speed Wind Dir Waves Ship Positions

Dream Diva

Last reported at 2017-Dec-14 17:55 UTC. Time now 2017-Dec-15 12:17 UTC.
Position S 36°24' E 175°16'.

Length 186 m; draft 7.6 m.

Type: Cargo ship. MMSI: 372856000.

Date/timePositionNaut miles runAvg speedWind from/ knotsBaromVisibWave heightAir tempDewpointWater temp
2017-Dec-14 17:55S 36°24' E 175°16'410.3
2017-Dec-14 17:30S 36°27' E 175°12'510.4
2017-Dec-14 17:00S 36°31' E 175°07'510.3
2017-Dec-14 16:29S 36°35' E 175°03'5 9.8
2017-Dec-14 16:00S 36°37' E 174°58'1010.2
2017-Dec-14 15:00S 36°45' E 174°50'5 9.6
2017-Dec-14 14:30S 36°50' E 174°50'3 5.2
2017-Dec-14 14:00S 36°50' E 174°46'0 0.0
2017-Dec-14 13:25S 36°50' E 174°46'0 0.0
2017-Dec-14 12:55S 36°50' E 174°46'0 0.0
2017-Dec-14 12:19S 36°50' E 174°46'0 0.0
2017-Dec-14 11:55S 36°50' E 174°46'0 0.0
2017-Dec-14 11:19S 36°50' E 174°46'0 0.0
2017-Dec-14 10:55S 36°50' E 174°46'0 0.0
2017-Dec-14 10:25S 36°50' E 174°46'0 0.0
2017-Dec-14 09:55S 36°50' E 174°46'0 0.0
2017-Dec-14 09:25S 36°50' E 174°46'0 0.0
2017-Dec-14 08:55S 36°50' E 174°46'0 0.0
2017-Dec-14 08:25S 36°50' E 174°46'0 0.0
2017-Dec-14 07:55S 36°50' E 174°46'0 0.0
2017-Dec-14 07:25S 36°50' E 174°46'0 0.0
2017-Dec-14 06:55S 36°50' E 174°46'0 0.0
2017-Dec-14 06:25S 36°50' E 174°46'0 0.0
2017-Dec-14 05:55S 36°50' E 174°46'0 0.0
2017-Dec-14 05:25S 36°50' E 174°46'0 0.0
2017-Dec-14 04:55S 36°50' E 174°46'0 0.0
2017-Dec-14 04:25S 36°50' E 174°46'0 0.0
2017-Dec-14 03:55S 36°50' E 174°46'0 0.0
2017-Dec-14 03:25S 36°50' E 174°46'0 0.0
2017-Dec-14 02:55S 36°50' E 174°46'0 0.0
2017-Dec-14 02:25S 36°50' E 174°46'0 0.0
2017-Dec-14 01:55S 36°50' E 174°46'0 0.0
2017-Dec-14 01:25S 36°50' E 174°46'0 0.0
2017-Dec-14 00:55S 36°50' E 174°46'0 0.0
2017-Dec-14 00:25S 36°50' E 174°46'0 0.0
2017-Dec-13 23:55S 36°50' E 174°46'0 0.0
2017-Dec-13 23:25S 36°50' E 174°46'0 0.3
2017-Dec-13 23:00S 36°50' E 174°46'2 4.8
2017-Dec-13 22:30S 36°50' E 174°49'510.5
2017-Dec-13 22:00S 36°45' E 174°50'4 8.9
2017-Dec-13 21:30S 36°41' E 174°53'4 8.7
2017-Dec-13 21:00S 36°38' E 174°57'3 6.7
2017-Dec-13 20:30S 36°34' E 174°58'  

Dump ship's entire track history